»·PEaware :: DAL1741 KSLC-KPDX

DAL1741 :: KSLC-KPDX

FLIGHT INFORMATION

Flight Status: Arrived
Operator:
Delta Air Lines
More flights by this operator :: More flights under this callsign
Pilot: Joe P. (13940)
Aircraft: BOEING 737-700
(B737)
More flights by this aircraft type
Origin: KSLC Salt Lake City Intl
United States
Destination: KPDX Portland Intl
United States
More flights between these airports :: More routes between these airports
Route: CGULL1 TWF J15 BOI J163 BKE JOTBA HHOOD4
File this flight plan on PilotEdge
Remarks: KSEA -PBN / A1B1C1D1L1O1S1 NAV / RNVD1E2A1 DOF / 180903 REG / N389DA EET / KZSE0055 RVR / 200 PER / C
Altitude:
(Current/Filed)
360ft
Speed:
(Current/Filed)
452kts
Departed: 03-Sep-18 08:53 AM
Arrived: 03-Sep-18 10:23 AM
Distance/Time
Traveled:
546nm/1:30
Distance/Time
To Go:
Arrived

Flight Plot

Page will automatically refresh every two minutes.

Flight plan parsing failed; only flown route is shown


Map Options




Map Legend


Flown Route
Filed Route
Departure Airport
Arrival Airport
Navaid (VOR, NDB)
Fix

Horizontal Profiles

Position Reports

Time Latitude Longitude Heading Altitude Ground
Speed
03-Sep-18 07:42 40.788528 -111.980747 282 4235ft 0kts
03-Sep-18 07:43 40.788528 -111.980747 282 4235ft 0kts
03-Sep-18 07:44 40.788528 -111.980747 282 4235ft 0kts
03-Sep-18 07:45 40.788528 -111.980747 282 4235ft 0kts
03-Sep-18 07:46 40.788528 -111.980747 282 4235ft 0kts
03-Sep-18 07:47 40.788528 -111.980747 282 4235ft 0kts
03-Sep-18 07:48 40.788528 -111.980747 282 4235ft 0kts
03-Sep-18 07:49 40.788528 -111.980747 282 4235ft 0kts
03-Sep-18 07:50 40.788528 -111.980747 282 4235ft 0kts
03-Sep-18 07:51 40.788528 -111.980747 282 4235ft 0kts
03-Sep-18 07:52 40.788528 -111.980747 282 4235ft 0kts
03-Sep-18 07:53 40.788528 -111.980747 282 4234ft 0kts
03-Sep-18 07:54 40.788528 -111.980747 282 4234ft 0kts
03-Sep-18 07:55 40.788528 -111.980747 282 4234ft 0kts
03-Sep-18 07:56 40.788528 -111.980747 282 4234ft 0kts
03-Sep-18 07:57 40.788528 -111.980747 282 4234ft 0kts
03-Sep-18 07:58 40.788528 -111.980747 282 4234ft 0kts
03-Sep-18 07:59 40.788528 -111.980747 282 4234ft 0kts
03-Sep-18 08:00 40.788528 -111.980747 282 4234ft 0kts
03-Sep-18 08:01 40.788528 -111.980747 282 4234ft 0kts
03-Sep-18 08:02 40.788528 -111.980747 282 4234ft 0kts
03-Sep-18 08:03 40.788528 -111.980747 282 4234ft 0kts
03-Sep-18 08:04 40.788528 -111.980747 282 4234ft 0kts
03-Sep-18 08:05 40.788528 -111.980747 282 4234ft 0kts
03-Sep-18 08:06 40.788528 -111.980747 282 4234ft 0kts
03-Sep-18 08:07 40.788528 -111.980747 282 4234ft 0kts
03-Sep-18 08:08 40.788528 -111.980747 282 4234ft 0kts
03-Sep-18 08:09 40.788528 -111.980747 282 4234ft 0kts
03-Sep-18 08:10 40.788528 -111.980747 282 4234ft 0kts
03-Sep-18 08:11 40.788528 -111.980747 282 4234ft 0kts
03-Sep-18 08:12 40.788528 -111.980747 282 4234ft 0kts
03-Sep-18 08:13 40.788528 -111.980747 282 4234ft 0kts
03-Sep-18 08:14 40.788528 -111.980747 282 4234ft 0kts
03-Sep-18 08:15 40.788528 -111.980747 282 4234ft 0kts
03-Sep-18 08:16 40.788528 -111.980747 282 4234ft 0kts
03-Sep-18 08:17 40.788528 -111.980747 282 4234ft 0kts
03-Sep-18 08:18 40.788528 -111.980747 282 4234ft 0kts
03-Sep-18 08:19 40.788528 -111.980747 282 4234ft 0kts
03-Sep-18 08:20 40.788528 -111.980747 282 4234ft 0kts
03-Sep-18 08:21 40.788528 -111.980747 282 4234ft 0kts
03-Sep-18 08:22 40.788528 -111.980747 282 4234ft 0kts
03-Sep-18 08:23 40.788528 -111.980747 282 4234ft 0kts
03-Sep-18 08:24 40.788528 -111.980747 282 4234ft 0kts
03-Sep-18 08:25 40.788528 -111.980747 282 4234ft 0kts
03-Sep-18 08:26 40.788528 -111.980747 282 4234ft 0kts
03-Sep-18 08:27 40.788528 -111.980747 282 4234ft 0kts
03-Sep-18 08:28 40.788528 -111.980747 282 4234ft 0kts
03-Sep-18 08:29 40.788528 -111.980747 282 4235ft 0kts
03-Sep-18 08:30 40.788528 -111.980747 282 4235ft 0kts
03-Sep-18 08:31 40.788528 -111.980747 282 4235ft 0kts
03-Sep-18 08:32 40.788528 -111.980747 282 4235ft 0kts
03-Sep-18 08:33 40.788528 -111.980747 282 4235ft 0kts
03-Sep-18 08:34 40.788528 -111.980747 282 4235ft 0kts
03-Sep-18 08:35 40.788528 -111.980747 282 4235ft 0kts
03-Sep-18 08:36 40.788528 -111.980747 282 4235ft 0kts
03-Sep-18 08:37 40.788528 -111.980747 282 4235ft 0kts
03-Sep-18 08:38 40.788528 -111.980747 282 4235ft 0kts
03-Sep-18 08:39 40.788528 -111.980747 282 4235ft 0kts
03-Sep-18 08:40 40.788528 -111.980747 282 4235ft 0kts
03-Sep-18 08:41 40.788528 -111.980747 282 4235ft 0kts
03-Sep-18 08:42 40.788473 -111.980420 282 4234ft 2kts
03-Sep-18 08:43 40.788336 -111.979609 282 4234ft 1kts
03-Sep-18 08:44 40.788333 -111.979591 282 4234ft 0kts
03-Sep-18 08:45 40.788333 -111.979592 282 4234ft 0kts
03-Sep-18 08:46 40.788333 -111.979594 282 4234ft 0kts
03-Sep-18 08:47 40.788981 -111.980013 358 4234ft 11kts
03-Sep-18 08:48 40.793201 -111.977783 18 4234ft 18kts
03-Sep-18 08:49 40.798557 -111.978155 354 4234ft 21kts
03-Sep-18 08:50 40.804355 -111.978781 354 4234ft 22kts
03-Sep-18 08:51 40.807542 -111.978566 79 4234ft 0kts
03-Sep-18 08:52 40.807574 -111.978141 90 4234ft 7kts
03-Sep-18 08:53 40.806636 -111.976799 174 4234ft 3kts
03-Sep-18 08:54 40.774250 -111.973256 176 5006ft 181kts
03-Sep-18 08:55 40.763416 -112.033308 305 7048ft 242kts
03-Sep-18 08:57 40.808345 -112.110010 311 9552ft 273kts
03-Sep-18 08:58 40.865233 -112.178064 318 12593ft 281kts
03-Sep-18 08:59 40.932956 -112.251384 319 13828ft 352kts
03-Sep-18 09:00 41.013423 -112.338731 319 15744ft 383kts
03-Sep-18 09:01 41.096871 -112.430043 319 18094ft 395kts
03-Sep-18 09:02 41.183453 -112.524485 321 20146ft 410kts
03-Sep-18 09:03 41.275516 -112.618783 317 22007ft 423kts
03-Sep-18 09:04 41.356759 -112.734635 311 23139ft 434kts
03-Sep-18 09:05 41.436803 -112.854086 310 23145ft 431kts
03-Sep-18 09:06 41.515433 -112.974933 309 23145ft 430kts
03-Sep-18 09:07 41.594055 -113.096257 309 24065ft 436kts
03-Sep-18 09:08 41.674675 -113.220356 310 25574ft 446kts
03-Sep-18 09:09 41.756578 -113.346964 309 26958ft 454kts
03-Sep-18 09:10 41.839920 -113.476623 309 28170ft 463kts
03-Sep-18 09:11 41.924402 -113.608703 309 29357ft 468kts
03-Sep-18 09:12 42.008775 -113.740730 308 30870ft 465kts
03-Sep-18 09:13 42.092439 -113.872930 308 32267ft 462kts
03-Sep-18 09:14 42.175514 -114.004750 308 33559ft 460kts
03-Sep-18 09:15 42.258286 -114.135985 307 34810ft 457kts
03-Sep-18 09:16 42.340441 -114.265949 307 35989ft 454kts
03-Sep-18 09:17 42.422555 -114.397365 307 36159ft 454kts
03-Sep-18 09:18 42.504080 -114.527158 308 36160ft 453kts
03-Sep-18 09:19 42.587120 -114.655661 308 36159ft 453kts
03-Sep-18 09:20 42.669658 -114.784303 308 36158ft 452kts
03-Sep-18 09:21 42.752491 -114.913222 308 36159ft 452kts
03-Sep-18 09:22 42.835066 -115.042240 308 36155ft 451kts
03-Sep-18 09:23 42.917271 -115.171544 307 36149ft 451kts
03-Sep-18 09:24 42.999199 -115.301089 308 36139ft 451kts
03-Sep-18 09:25 43.081225 -115.431368 307 36126ft 451kts
03-Sep-18 09:26 43.162856 -115.561621 307 36120ft 450kts
03-Sep-18 09:27 43.244243 -115.692076 307 36118ft 450kts
03-Sep-18 09:28 43.325270 -115.822542 307 36119ft 449kts
03-Sep-18 09:29 43.406209 -115.952931 307 36117ft 448kts
03-Sep-18 09:30 43.486887 -116.084315 307 36113ft 447kts
03-Sep-18 09:31 43.569459 -116.212716 314 36110ft 450kts
03-Sep-18 09:32 43.662972 -116.327015 316 36110ft 450kts
03-Sep-18 09:33 43.756579 -116.441951 315 36111ft 450kts
03-Sep-18 09:34 43.850055 -116.556847 316 36111ft 449kts
03-Sep-18 09:35 43.943593 -116.672107 316 36113ft 449kts
03-Sep-18 09:36 44.036421 -116.787268 315 36111ft 445kts
03-Sep-18 09:37 44.128350 -116.901930 315 36111ft 443kts
03-Sep-18 09:38 44.220167 -117.016949 315 36111ft 442kts
03-Sep-18 09:39 44.311147 -117.131455 315 36113ft 441kts
03-Sep-18 09:40 44.401885 -117.246136 315 36114ft 440kts
03-Sep-18 09:41 44.492683 -117.361412 315 36111ft 439kts
03-Sep-18 09:42 44.582886 -117.476434 315 36104ft 438kts
03-Sep-18 09:43 44.673142 -117.591617 315 36093ft 438kts
03-Sep-18 09:44 44.762832 -117.707221 315 36084ft 437kts
03-Sep-18 09:45 44.839664 -117.836025 288 36081ft 430kts
03-Sep-18 09:45 44.861664 -117.972576 280 36085ft 430kts
03-Sep-18 09:47 44.886805 -118.165372 280 36109ft 427kts
03-Sep-18 09:48 44.908041 -118.330107 280 36131ft 426kts
03-Sep-18 09:48 44.925914 -118.467380 280 36137ft 425kts
03-Sep-18 09:49 44.946787 -118.631722 280 36146ft 425kts
03-Sep-18 09:50 44.967295 -118.796069 280 36151ft 424kts
03-Sep-18 09:52 44.990783 -118.987165 279 36141ft 423kts
03-Sep-18 09:52 45.007316 -119.123440 279 36148ft 422kts
03-Sep-18 09:53 45.026980 -119.287415 279 36148ft 421kts
03-Sep-18 09:54 45.046289 -119.450496 279 36146ft 421kts
03-Sep-18 09:55 45.065370 -119.613724 279 36143ft 420kts
03-Sep-18 09:56 45.084174 -119.776705 279 35281ft 416kts
03-Sep-18 09:57 45.102727 -119.939556 279 32515ft 420kts
03-Sep-18 09:58 45.120979 -120.100311 279 30385ft 407kts
03-Sep-18 09:59 45.138418 -120.256140 279 28460ft 393kts
03-Sep-18 10:00 45.154773 -120.407244 279 26590ft 383kts
03-Sep-18 10:01 45.180522 -120.551022 295 24745ft 375kts
03-Sep-18 10:02 45.229204 -120.681206 297 22910ft 370kts
03-Sep-18 10:03 45.278257 -120.808047 297 21106ft 364kts
03-Sep-18 10:04 45.326091 -120.933456 297 19319ft 358kts
03-Sep-18 10:05 45.372986 -121.056995 297 17414ft 355kts
03-Sep-18 10:06 45.418439 -121.176666 297 16033ft 338kts
03-Sep-18 10:07 45.448294 -121.301333 285 14549ft 323kts
03-Sep-18 10:08 45.471764 -121.422024 285 12986ft 320kts
03-Sep-18 10:09 45.495000 -121.538653 285 11616ft 287kts
03-Sep-18 10:10 45.515445 -121.643046 286 10816ft 256kts
03-Sep-18 10:11 45.530423 -121.732748 276 10111ft 221kts
03-Sep-18 10:12 45.533499 -121.820355 275 8787ft 213kts
03-Sep-18 10:13 45.536150 -121.898538 276 8045ft 186kts
03-Sep-18 10:14 45.539559 -121.980615 276 7267ft 229kts
03-Sep-18 10:15 45.529900 -122.068531 239 6487ft 232kts
03-Sep-18 10:16 45.491671 -122.143273 237 5956ft 231kts
03-Sep-18 10:17 45.460840 -122.222639 249 5085ft 226kts
03-Sep-18 10:18 45.472221 -122.304798 297 4085ft 218kts
03-Sep-18 10:19 45.500417 -122.378647 300 3216ft 197kts
03-Sep-18 10:20 45.524034 -122.439141 299 2259ft 158kts
03-Sep-18 10:21 45.545198 -122.493356 299 1436ft 158kts
03-Sep-18 10:22 45.566332 -122.547542 298 605ft 152kts
03-Sep-18 10:23 45.585918 -122.597950 299 26ft 105kts
03-Sep-18 10:24 45.588460 -122.605912 232 26ft 0kts
03-Sep-18 10:25 45.588459 -122.605913 232 26ft 0kts
03-Sep-18 10:26 45.588238 -122.606214 41 26ft 0kts
03-Sep-18 10:27 45.588239 -122.606213 41 26ft 0kts
03-Sep-18 10:28 45.590525 -122.603090 44 26ft 17kts
03-Sep-18 10:29 45.591629 -122.598491 55 26ft 14kts
03-Sep-18 10:30 45.591962 -122.594152 121 26ft 13kts
03-Sep-18 10:31 45.591266 -122.594144 202 26ft 0kts
03-Sep-18 10:32 45.591266 -122.594144 202 26ft 0kts
03-Sep-18 10:33 45.591266 -122.594144 202 26ft 0kts
03-Sep-18 10:34 45.591266 -122.594144 202 26ft 0kts
03-Sep-18 10:35 45.591266 -122.594144 202 26ft 0kts
03-Sep-18 10:36 45.591266 -122.594144 202 26ft 0kts
03-Sep-18 10:37 45.591266 -122.594144 202 26ft 0kts
03-Sep-18 10:38 45.591266 -122.594144 202 26ft 0kts

Navigation Log

Ident Type
Flight plan parsing failed, navigation log unavailable